Time;durP1;ratioP1;P1;durP2;ratioP2;P2;SDS_P1;SDS_P2;PMS_P1;PMS_P2;Temp;Humidity;BMP_temperature;BMP_pressure;BME280_temperature;BME280_humidity;BME280_pressure;Samples;Min_cycle;Max_cycle;Signal;HPM_P1;HPM_P2
2022/08/04 00:00:13;;;;;;;12.13;8.15;;;;;;;24.35;73.84;99383.31;5092074;28;20277;-63
2022/08/04 00:02:53;;;;;;;8.90;8.00;;;;;;;24.31;74.26;99388.03;5091847;28;20194;-64
2022/08/04 00:05:35;;;;;;;8.85;8.02;;;;;;;24.22;74.45;99391.50;5091478;28;20199;-64
2022/08/04 00:08:10;;;;;;;8.57;7.78;;;;;;;24.20;74.56;99394.25;5091208;28;20302;-59
2022/08/04 00:10:40;;;;;;;9.77;8.15;;;;;;;24.22;74.74;99388.84;5091578;28;20820;-59
2022/08/04 00:13:09;;;;;;;9.23;7.85;;;;;;;24.25;74.54;99396.53;5091401;28;20199;-59
2022/08/04 00:15:37;;;;;;;9.07;7.80;;;;;;;24.34;73.64;99395.75;5091187;28;20417;-59
2022/08/04 00:18:07;;;;;;;8.07;7.28;;;;;;;24.33;73.70;99399.38;5091450;28;20199;-66
2022/08/04 00:20:39;;;;;;;9.25;7.45;;;;;;;24.32;72.75;99402.16;5091390;28;20197;-65
2022/08/04 00:23:08;;;;;;;8.73;7.28;;;;;;;24.30;72.24;99398.78;5091178;28;20274;-64
2022/08/04 00:25:38;;;;;;;9.88;6.07;;;;;;;24.22;70.89;99404.75;5090945;28;20192;-63
2022/08/04 00:28:05;;;;;;;10.27;6.50;;;;;;;24.18;71.05;99406.81;5090656;28;20195;-62
2022/08/04 00:30:32;;;;;;;6.82;5.97;;;;;;;24.17;70.88;99404.28;5090530;28;20350;-61
2022/08/04 00:33:02;;;;;;;10.35;6.07;;;;;;;24.27;70.63;99407.84;5091075;28;20222;-62
2022/08/04 00:35:29;;;;;;;6.82;6.28;;;;;;;24.33;69.93;99407.31;5090568;28;20234;-62
2022/08/04 00:37:58;;;;;;;6.53;5.93;;;;;;;24.24;69.71;99408.97;5090691;28;20290;-61
2022/08/04 00:40:32;;;;;;;7.90;6.05;;;;;;;24.13;70.09;99403.72;5090594;28;20281;-61
2022/08/04 00:43:10;;;;;;;8.20;6.07;;;;;;;24.20;70.39;99419.94;5091151;28;20732;-63
2022/08/04 00:45:51;;;;;;;6.47;6.07;;;;;;;24.19;70.34;99415.59;5090533;28;20203;-61
2022/08/04 00:48:32;;;;;;;6.82;6.22;;;;;;;24.16;70.66;99421.16;5091081;28;20623;-61
2022/08/04 00:51:11;;;;;;;11.25;6.65;;;;;;;24.11;70.92;99413.63;5090442;28;20614;-61
2022/08/04 00:53:54;;;;;;;7.18;6.63;;;;;;;24.01;71.73;99422.50;5090482;28;20206;-61
2022/08/04 00:56:50;;;;;;;7.20;6.50;;;;;;;23.89;72.29;99411.13;5090839;28;20708;-62
2022/08/04 00:59:36;;;;;;;7.00;6.45;;;;;;;24.03;71.83;99417.91;5090649;28;20195;-58
2022/08/04 01:02:13;;;;;;;10.98;6.80;;;;;;;23.99;72.20;99419.97;5090460;28;20684;-59
2022/08/04 01:04:48;;;;;;;7.25;6.53;;;;;;;23.96;72.24;99414.09;5090505;28;20195;-59
2022/08/04 01:07:31;;;;;;;9.45;6.63;;;;;;;24.02;72.42;99411.75;5090406;28;20286;-59
2022/08/04 01:10:06;;;;;;;6.80;6.22;;;;;;;23.99;72.73;99414.66;5089431;28;20286;-59
2022/08/04 01:13:08;;;;;;;6.20;5.90;;;;;;;24.00;73.05;99405.75;5090143;28;20284;-57
2022/08/04 01:15:45;;;;;;;7.13;6.18;;;;;;;24.01;73.40;99395.97;5090387;28;20226;-57
2022/08/04 01:18:22;;;;;;;7.05;6.35;;;;;;;24.04;73.65;99411.63;5090389;28;20249;-63
2022/08/04 01:21:12;;;;;;;6.45;6.05;;;;;;;24.02;74.03;99416.22;5090134;28;20191;-63
2022/08/04 01:24:14;;;;;;;6.55;6.15;;;;;;;23.98;74.54;99420.94;5090087;28;20199;-59
2022/08/04 01:26:55;;;;;;;8.65;6.30;;;;;;;23.88;75.08;99415.59;5090013;28;20195;-58
2022/08/04 01:29:26;;;;;;;7.65;7.00;;;;;;;23.84;75.33;99419.47;5089459;28;20310;-59
2022/08/04 01:32:02;;;;;;;7.07;6.47;;;;;;;23.87;75.66;99416.56;5089824;28;20298;-58
2022/08/04 01:34:31;;;;;;;6.20;5.50;;;;;;;23.79;76.40;99419.03;5089773;28;20198;-59
2022/08/04 01:37:08;;;;;;;6.18;5.65;;;;;;;23.64;77.16;99408.88;5089728;28;20199;-58
2022/08/04 01:39:41;;;;;;;6.70;6.30;;;;;;;23.67;77.82;99422.72;5089762;28;20246;-59
2022/08/04 01:42:09;;;;;;;6.88;6.38;;;;;;;23.46;78.57;99403.28;5089259;28;20249;-58
2022/08/04 01:44:40;;;;;;;6.72;6.13;;;;;;;23.46;79.42;99421.84;5089638;28;20201;-58
2022/08/04 01:47:08;;;;;;;9.10;6.00;;;;;;;23.40;79.82;99417.03;5089908;28;20207;-58
2022/08/04 01:49:38;;;;;;;7.28;6.72;;;;;;;23.43;80.27;99414.13;5089755;28;20249;-60
2022/08/04 01:52:09;;;;;;;6.38;6.00;;;;;;;23.43;80.28;99411.47;5089654;28;20207;-64
2022/08/04 01:54:39;;;;;;;7.07;6.53;;;;;;;23.30;81.31;99418.75;5090599;28;20638;-66
2022/08/04 01:57:07;;;;;;;7.32;6.72;;;;;;;23.21;82.52;99422.19;5090096;28;20569;-64
2022/08/04 01:59:36;;;;;;;7.63;7.03;;;;;;;23.13;83.42;99413.06;5090298;28;20196;-64
2022/08/04 02:02:06;;;;;;;7.95;7.22;;;;;;;23.09;84.25;99405.50;5089770;28;20210;-64
2022/08/04 02:04:35;;;;;;;8.40;7.78;;;;;;;23.06;84.44;99411.88;5100149;28;20683;-65
2022/08/04 02:07:28;;;;;;;8.02;7.60;;;;;;;23.00;85.24;99409.75;5100841;28;20222;-65
2022/08/04 02:10:05;;;;;;;8.00;7.45;;;;;;;22.96;85.66;99408.31;5099543;28;20215;-63
2022/08/04 02:12:50;;;;;;;8.20;7.65;;;;;;;22.84;86.34;99409.28;5098582;28;20195;-64
2022/08/04 02:15:26;;;;;;;11.10;7.78;;;;;;;22.86;86.64;99420.59;5099270;28;20203;-63
2022/08/04 02:18:02;;;;;;;8.32;7.82;;;;;;;22.78;87.26;99418.59;5098940;28;20195;-65
2022/08/04 02:20:39;;;;;;;7.93;7.43;;;;;;;22.79;87.73;99416.78;5098332;28;20242;-63
2022/08/04 02:23:08;;;;;;;8.98;8.18;;;;;;;22.69;88.05;99421.06;5103214;28;20221;-66
2022/08/04 02:25:40;;;;;;;10.68;8.18;;;;;;;22.62;88.95;99425.19;5106856;28;20229;-64
2022/08/04 02:28:22;;;;;;;10.20;8.15;;;;;;;22.56;89.66;99418.59;5101496;28;20282;-67
2022/08/04 02:31:03;;;;;;;8.50;7.85;;;;;;;22.48;90.15;99420.13;5099487;28;20217;-64
2022/08/04 02:33:40;;;;;;;9.10;8.40;;;;;;;22.44;90.13;99425.69;5105494;28;20191;-64
2022/08/04 02:36:10;;;;;;;8.70;7.90;;;;;;;22.45;89.39;99426.53;5097750;28;20195;-59
2022/08/04 02:38:53;;;;;;;9.82;7.50;;;;;;;22.48;88.87;99417.50;5097641;28;20673;-59
2022/08/04 02:41:22;;;;;;;8.70;7.95;;;;;;;22.49;88.43;99421.81;5113024;28;20609;-59
2022/08/04 02:43:50;;;;;;;8.52;7.72;;;;;;;22.45;88.93;99421.25;5112897;27;20224;-59
2022/08/04 02:46:18;;;;;;;12.32;11.32;;;;;;;22.43;88.29;99418.72;5112576;28;20303;-59
2022/08/04 02:48:49;;;;;;;8.73;7.65;;;;;;;22.36;88.03;99411.38;5112965;27;20264;-60
2022/08/04 02:51:22;;;;;;;9.18;8.48;;;;;;;22.52;87.47;99419.78;5113298;28;20226;-57
2022/08/04 02:53:52;;;;;;;7.75;7.15;;;;;;;22.56;85.97;99423.88;5112870;27;20218;-58
2022/08/04 02:56:20;;;;;;;7.10;6.70;;;;;;;22.56;85.69;99423.03;5112984;28;20626;-58
2022/08/04 02:58:51;;;;;;;7.35;6.80;;;;;;;22.49;85.94;99417.38;5113018;28;20214;-58
2022/08/04 03:01:18;;;;;;;8.30;7.47;;;;;;;22.40;86.62;99418.13;5105023;28;20698;-58
2022/08/04 03:03:58;;;;;;;10.48;7.72;;;;;;;22.32;87.38;99420.53;5096495;28;20196;-58
2022/08/04 03:06:57;;;;;;;7.20;6.70;;;;;;;22.29;88.06;99421.59;5092619;28;20225;-58
2022/08/04 03:10:02;;;;;;;8.38;7.60;;;;;;;22.29;88.40;99426.88;5066504;28;20314;-58
2022/08/04 03:13:07;;;;;;;7.20;6.80;;;;;;;22.28;88.60;99429.66;5092560;28;20205;-58
2022/08/04 03:15:54;;;;;;;8.25;7.65;;;;;;;22.19;89.33;99423.28;5074626;28;20209;-58
2022/08/04 03:19:04;;;;;;;7.78;7.38;;;;;;;22.22;89.45;99427.50;5092387;28;20201;-58
2022/08/04 03:22:00;;;;;;;7.90;7.18;;;;;;;22.26;89.05;99424.47;5044287;28;20682;-59
2022/08/04 03:25:03;;;;;;;8.57;7.97;;;;;;;22.24;89.41;99429.03;5104778;28;20202;-60
2022/08/04 03:27:53;;;;;;;8.30;7.80;;;;;;;22.27;89.12;99434.09;5112590;28;20201;-60
2022/08/04 03:30:25;;;;;;;9.10;8.40;;;;;;;22.29;89.16;99437.47;5112467;28;20309;-59
2022/08/04 03:33:37;;;;;;;8.85;8.05;;;;;;;22.23;89.28;99429.19;5111851;28;20649;-58
2022/08/04 03:36:38;;;;;;;8.35;7.72;;;;;;;22.32;88.80;99439.88;5111978;27;20207;-63
2022/08/04 03:39:37;;;;;;;8.57;7.90;;;;;;;22.41;88.53;99435.66;5112077;28;20293;-63
2022/08/04 03:42:27;;;;;;;9.40;8.38;;;;;;;22.46;88.20;99439.63;5109109;28;20686;-62
2022/08/04 03:45:24;;;;;;;8.73;8.07;;;;;;;22.48;87.76;99442.13;5111159;28;20234;-62
2022/08/04 03:48:13;;;;;;;10.65;8.27;;;;;;;22.49;88.08;99438.53;5108608;28;20198;-63
2022/08/04 03:54:25;;;;;;;8.73;7.85;;;;;;;22.76;86.00;99430.25;5095326;28;20714;-63
2022/08/04 03:57:09;;;;;;;8.60;7.90;;;;;;;22.90;85.72;99427.34;5105931;28;20226;-62
2022/08/04 04:00:00;;;;;;;8.50;7.90;;;;;;;23.10;84.98;99431.84;5098770;28;20191;-62
2022/08/04 04:03:05;;;;;;;8.88;8.05;;;;;;;23.86;80.27;99436.09;5101145;28;20590;-62
2022/08/04 04:06:04;;;;;;;8.57;7.82;;;;;;;25.12;73.35;99431.28;5071837;28;20277;-62
2022/08/04 04:09:20;;;;;;;7.93;7.32;;;;;;;26.65;66.56;99440.81;5100811;28;20205;-63
2022/08/04 04:12:11;;;;;;;8.13;7.50;;;;;;;27.99;60.33;99448.78;5099022;28;20202;-59
2022/08/04 04:14:49;;;;;;;9.60;7.22;;;;;;;28.47;57.43;99455.44;5094481;28;20769;-59
2022/08/04 04:17:45;;;;;;;6.70;6.13;;;;;;;28.43;56.98;99457.59;5091546;28;20650;-60
2022/08/04 04:20:51;;;;;;;8.93;7.07;;;;;;;28.61;56.21;99462.00;5106752;28;20194;-59
2022/08/04 04:23:31;;;;;;;7.30;6.90;;;;;;;29.46;53.42;99469.78;5098740;28;20260;-59
2022/08/04 04:26:22;;;;;;;7.28;6.93;;;;;;;30.49;49.93;99454.81;5100772;28;20194;-58
2022/08/04 04:29:04;;;;;;;7.00;6.70;;;;;;;31.05;47.73;99468.97;5101281;28;20206;-57
2022/08/04 04:31:46;;;;;;;6.60;6.20;;;;;;;30.86;47.60;99475.63;5112140;27;20719;-56
2022/08/04 04:34:34;;;;;;;8.10;6.88;;;;;;;30.43;48.51;99468.06;5099141;27;20206;-57
2022/08/04 04:37:20;;;;;;;8.30;6.93;;;;;;;30.79;47.78;99480.03;5121951;27;20203;-65
2022/08/04 04:40:03;;;;;;;7.65;6.95;;;;;;;31.37;45.95;99473.34;5090934;28;20203;-64
2022/08/04 04:42:43;;;;;;;7.63;6.90;;;;;;;32.30;44.07;99478.44;5090663;28;20321;-64
2022/08/04 04:45:23;;;;;;;6.85;6.35;;;;;;;32.97;41.44;99478.31;5090559;28;20222;-61
2022/08/04 04:47:57;;;;;;;7.03;6.47;;;;;;;33.32;40.89;99482.06;5090662;28;20199;-61
2022/08/04 04:50:34;;;;;;;11.25;10.40;;;;;;;34.60;38.62;99478.16;5095466;28;20996;-61
2022/08/04 04:53:11;;;;;;;7.75;6.90;;;;;;;34.86;37.58;99482.88;5110802;28;20196;-65
2022/08/04 04:55:43;;;;;;;9.70;6.30;;;;;;;35.78;35.94;99485.00;5109703;28;20241;-64
2022/08/04 04:58:17;;;;;;;14.15;10.82;;;;;;;35.72;35.46;99477.69;5109660;28;20584;-64
2022/08/04 05:01:05;;;;;;;10.50;9.50;;;;;;;36.36;34.14;99494.13;5110364;28;20209;-65
2022/08/04 05:03:48;;;;;;;8.88;8.05;;;;;;;36.98;33.04;99491.88;5110783;28;20698;-64
2022/08/04 05:06:29;;;;;;;7.60;5.50;;;;;;;37.40;32.56;99495.84;5110485;28;20198;-65
2022/08/04 05:09:28;;;;;;;5.93;5.43;;;;;;;37.70;31.80;99496.09;5110278;28;20280;-65
2022/08/04 05:12:18;;;;;;;6.47;5.68;;;;;;;37.95;31.01;99498.78;5099248;28;20216;-65
2022/08/04 05:14:50;;;;;;;6.88;6.38;;;;;;;37.28;31.77;99500.28;5097925;28;20238;-65
2022/08/04 05:17:22;;;;;;;7.63;5.75;;;;;;;37.57;31.62;99501.56;5105140;28;20190;-66
2022/08/04 05:19:57;;;;;;;6.05;5.65;;;;;;;38.04;30.75;99505.56;5106353;28;20507;-64
2022/08/04 05:22:29;;;;;;;11.27;6.63;;;;;;;38.79;29.46;99498.19;5103240;28;20292;-62
2022/08/04 05:25:03;;;;;;;10.13;8.40;;;;;;;38.31;30.34;99509.75;5100198;28;20248;-63
2022/08/04 05:27:36;;;;;;;5.80;5.30;;;;;;;38.76;29.63;99504.88;5098451;28;20715;-63
2022/08/04 05:30:07;;;;;;;7.68;5.15;;;;;;;38.40;30.24;99500.25;5097579;28;20305;-62
2022/08/04 05:32:45;;;;;;;6.07;5.78;;;;;;;37.84;30.88;99505.75;5098755;28;20194;-63
2022/08/04 05:35:20;;;;;;;5.75;5.32;;;;;;;38.21;30.77;99509.44;5099693;28;20272;-63
2022/08/04 05:37:52;;;;;;;5.95;5.63;;;;;;;38.11;30.40;99507.22;5097546;28;20205;-63
2022/08/04 05:40:19;;;;;;;7.05;5.75;;;;;;;37.92;30.42;99502.78;5098170;28;20228;-63
2022/08/04 05:42:48;;;;;;;6.63;6.10;;;;;;;37.94;30.41;99503.38;5099513;28;20225;-61
2022/08/04 05:45:18;;;;;;;6.93;5.55;;;;;;;36.77;31.89;99493.00;5104889;28;20199;-61
2022/08/04 05:47:46;;;;;;;9.23;8.52;;;;;;;35.30;34.26;99501.31;5100204;28;20585;-61
2022/08/04 05:50:14;;;;;;;9.30;8.52;;;;;;;34.26;36.08;99499.72;5099576;28;20221;-62
2022/08/04 05:52:43;;;;;;;6.95;5.25;;;;;;;32.00;40.18;99507.09;5097895;28;20198;-63
2022/08/04 05:55:12;;;;;;;5.97;5.47;;;;;;;30.49;44.00;99491.47;5097487;28;20195;-63
2022/08/04 05:57:41;;;;;;;6.85;6.30;;;;;;;30.22;45.61;99490.88;5089934;28;20577;-64
2022/08/04 06:00:10;;;;;;;8.60;6.05;;;;;;;30.81;46.06;99491.41;5089539;28;20191;-63
2022/08/04 06:02:39;;;;;;;6.97;6.38;;;;;;;31.78;42.53;99491.84;5092159;28;20646;-65
2022/08/04 06:05:08;;;;;;;12.32;6.30;;;;;;;32.88;39.73;99482.16;5088809;28;20252;-66
2022/08/04 06:07:35;;;;;;;11.75;7.72;;;;;;;34.18;37.30;99492.59;5088926;28;20195;-65
2022/08/04 06:10:02;;;;;;;7.38;6.68;;;;;;;35.01;35.96;99498.91;5089324;28;20202;-64
2022/08/04 06:12:36;;;;;;;7.85;6.53;;;;;;;36.15;34.02;99494.34;5089363;28;20289;-66
2022/08/04 06:15:04;;;;;;;7.13;5.88;;;;;;;36.82;32.78;99500.47;5089533;28;20195;-66
2022/08/04 06:17:36;;;;;;;9.32;5.95;;;;;;;36.69;33.09;99501.34;5089844;28;20209;-66
2022/08/04 06:20:07;;;;;;;7.07;5.82;;;;;;;37.33;32.56;99514.00;5089592;28;20221;-59
2022/08/04 06:22:39;;;;;;;5.85;5.40;;;;;;;38.10;32.27;99492.00;5089120;28;20199;-57
2022/08/04 06:25:09;;;;;;;12.18;5.38;;;;;;;38.80;30.96;99505.28;5089367;28;20198;-58
2022/08/04 06:27:36;;;;;;;12.63;5.55;;;;;;;39.00;29.96;99505.06;5090987;28;20203;-59
2022/08/04 06:30:05;;;;;;;5.50;5.00;;;;;;;38.96;29.58;99498.38;5089360;28;20201;-65
2022/08/04 06:32:46;;;;;;;6.80;4.82;;;;;;;38.46;31.16;99495.81;5089167;28;20245;-55
2022/08/04 06:35:16;;;;;;;7.20;5.40;;;;;;;38.37;30.60;99480.91;5088467;28;20240;-65
2022/08/04 06:37:45;;;;;;;6.30;5.00;;;;;;;39.02;30.75;99494.81;5089115;28;20202;-65
2022/08/04 06:40:14;;;;;;;5.72;4.93;;;;;;;38.80;29.76;99492.53;5089083;28;20226;-65
2022/08/04 06:42:42;;;;;;;9.88;4.80;;;;;;;38.69;30.42;99492.47;5088631;28;20609;-66
2022/08/04 06:45:11;;;;;;;4.75;4.30;;;;;;;38.49;30.28;99488.03;5089122;28;20198;-65
2022/08/04 06:47:39;;;;;;;5.18;4.88;;;;;;;38.08;30.55;99496.00;5088873;28;20191;-65
2022/08/04 06:50:08;;;;;;;5.13;4.72;;;;;;;38.31;31.74;99488.03;5089038;28;20195;-65
2022/08/04 06:52:37;;;;;;;4.97;4.55;;;;;;;38.49;29.93;99477.19;5088570;28;20191;-66
2022/08/04 06:55:06;;;;;;;5.57;5.15;;;;;;;37.93;30.45;99479.19;5089004;28;20195;-66
2022/08/04 06:57:34;;;;;;;5.18;4.88;;;;;;;38.00;30.83;99486.22;5089139;28;20195;-65
2022/08/04 07:00:06;;;;;;;6.55;5.75;;;;;;;37.74;30.66;99481.88;5089040;28;20668;-64
2022/08/04 07:02:38;;;;;;;8.25;4.65;;;;;;;37.74;31.73;99476.44;5092423;28;20243;-65
2022/08/04 07:05:07;;;;;;;5.45;5.05;;;;;;;38.00;30.79;99480.00;5109115;28;20593;-65
2022/08/04 07:07:36;;;;;;;5.72;5.32;;;;;;;37.96;29.93;99486.88;5109414;28;20198;-63
2022/08/04 07:10:03;;;;;;;5.82;5.43;;;;;;;38.14;29.71;99484.28;5112761;28;20194;-65
2022/08/04 07:12:32;;;;;;;5.30;4.90;;;;;;;37.73;30.76;99487.50;5112764;28;20218;-65
2022/08/04 07:15:00;;;;;;;5.15;4.75;;;;;;;37.70;30.97;99483.34;5112859;28;20205;-65
2022/08/04 07:17:29;;;;;;;5.15;4.85;;;;;;;37.96;30.35;99487.72;5112970;28;20315;-63
2022/08/04 07:19:56;;;;;;;9.43;5.32;;;;;;;37.88;30.48;99489.88;5112911;28;20194;-64
2022/08/04 07:22:25;;;;;;;5.50;5.10;;;;;;;38.00;30.38;99488.13;5113071;28;20187;-65
2022/08/04 07:24:56;;;;;;;7.10;5.75;;;;;;;38.17;30.29;99496.53;5113233;28;20262;-66
2022/08/04 07:27:24;;;;;;;7.32;5.90;;;;;;;38.62;29.18;99495.25;5112796;28;20200;-56
2022/08/04 07:29:51;;;;;;;5.68;5.13;;;;;;;38.57;28.94;99494.28;5097212;28;20202;-56
2022/08/04 07:32:20;;;;;;;5.30;5.00;;;;;;;38.70;29.32;99481.41;5094428;28;20605;-56
2022/08/04 07:34:48;;;;;;;6.18;5.78;;;;;;;39.00;28.61;99494.19;5091895;28;20191;-56
2022/08/04 07:37:15;;;;;;;5.85;5.32;;;;;;;38.77;28.53;99492.16;5091895;28;20225;-56
2022/08/04 07:39:42;;;;;;;5.50;5.10;;;;;;;39.14;28.21;99490.25;5091981;28;20191;-55
2022/08/04 07:42:11;;;;;;;6.03;5.13;;;;;;;39.94;27.62;99496.19;5091837;28;20230;-56
2022/08/04 07:44:38;;;;;;;5.43;4.97;;;;;;;40.67;26.53;99495.66;5091933;28;20204;-56
2022/08/04 07:47:07;;;;;;;7.60;4.90;;;;;;;41.35;25.72;99497.59;5091912;28;20191;-56
2022/08/04 07:49:35;;;;;;;9.65;4.97;;;;;;;41.73;25.67;99487.94;5091798;28;20214;-56
2022/08/04 07:52:03;;;;;;;7.63;5.07;;;;;;;42.24;25.19;99486.84;5091903;28;20222;-55
2022/08/04 07:54:30;;;;;;;4.65;4.43;;;;;;;42.10;24.72;99491.03;5091828;28;20198;-55
2022/08/04 07:56:57;;;;;;;5.97;5.05;;;;;;;41.83;26.84;99488.09;5092204;28;20198;-65
2022/08/04 07:59:26;;;;;;;5.47;5.03;;;;;;;41.93;25.10;99488.28;5091614;28;20285;-63
2022/08/04 08:01:54;;;;;;;4.43;4.20;;;;;;;41.83;24.82;99486.22;5091798;28;20194;-63
2022/08/04 08:04:23;;;;;;;4.93;4.53;;;;;;;42.20;25.08;99483.81;5111341;28;20666;-62
2022/08/04 08:06:51;;;;;;;4.97;4.57;;;;;;;41.13;25.24;99485.75;5102078;28;20221;-62
2022/08/04 08:09:20;;;;;;;4.78;4.57;;;;;;;41.26;26.21;99477.28;5098595;28;20228;-63
2022/08/04 08:11:49;;;;;;;4.80;4.53;;;;;;;41.32;26.21;99463.50;5098465;28;20609;-56
2022/08/04 08:14:16;;;;;;;4.72;4.43;;;;;;;41.51;26.18;99463.28;5094668;28;20223;-56
2022/08/04 08:16:45;;;;;;;5.07;4.75;;;;;;;41.93;25.90;99467.28;5090162;28;20235;-63
2022/08/04 08:19:13;;;;;;;4.70;4.40;;;;;;;40.95;26.62;99451.34;5090183;28;20273;-54
2022/08/04 08:21:40;;;;;;;6.22;4.75;;;;;;;40.67;25.74;99463.00;5091138;28;20328;-64
2022/08/04 08:24:07;;;;;;;6.28;5.00;;;;;;;40.04;26.62;99465.69;5090855;28;20201;-64
2022/08/04 08:26:34;;;;;;;5.15;4.72;;;;;;;40.00;26.55;99461.78;5091200;28;20203;-64
2022/08/04 08:29:03;;;;;;;7.43;4.78;;;;;;;40.11;26.84;99461.78;5090887;28;20202;-64
2022/08/04 08:31:40;;;;;;;7.13;4.60;;;;;;;40.41;27.37;99452.69;5099841;28;20256;-64
2022/08/04 08:34:08;;;;;;;4.82;4.57;;;;;;;40.11;26.75;99459.06;5107921;28;20225;-61
2022/08/04 08:36:39;;;;;;;5.03;4.47;;;;;;;39.29;27.31;99460.78;5110153;28;20232;-60
2022/08/04 08:39:12;;;;;;;4.47;4.13;;;;;;;38.51;28.71;99449.84;5111229;28;20196;-54
2022/08/04 08:42:05;;;;;;;6.97;4.68;;;;;;;38.72;28.03;99454.84;5111158;28;20233;-55
2022/08/04 08:45:08;;;;;;;4.72;4.40;;;;;;;38.69;28.10;99449.06;5111240;28;20204;-61
2022/08/04 08:47:50;;;;;;;5.50;4.22;;;;;;;38.66;27.38;99450.34;5108438;28;20675;-62
2022/08/04 08:50:41;;;;;;;4.15;3.95;;;;;;;38.47;27.57;99446.78;5111256;28;20206;-61
2022/08/04 08:53:27;;;;;;;5.00;3.95;;;;;;;38.13;28.05;99447.38;5108396;28;20232;-54
2022/08/04 08:56:12;;;;;;;4.57;4.35;;;;;;;38.06;28.48;99441.13;5110880;28;20199;-54
2022/08/04 08:59:01;;;;;;;4.30;4.10;;;;;;;38.10;28.15;99435.09;5110933;28;20205;-54
2022/08/04 09:01:47;;;;;;;5.00;4.57;;;;;;;38.18;28.61;99435.84;5110756;28;20190;-54
2022/08/04 09:04:38;;;;;;;4.05;3.85;;;;;;;37.68;28.82;99430.47;5110927;28;20208;-55
2022/08/04 09:07:31;;;;;;;3.40;3.30;;;;;;;37.50;27.76;99435.75;5110616;28;20194;-58
2022/08/04 09:10:12;;;;;;;4.22;3.35;;;;;;;37.78;26.99;99428.06;5110317;28;20293;-55
2022/08/04 09:12:45;;;;;;;3.38;3.17;;;;;;;37.46;25.88;99431.84;5110579;28;20235;-61
2022/08/04 09:15:16;;;;;;;4.93;3.10;;;;;;;37.65;27.44;99430.91;5110645;28;20197;-67
2022/08/04 09:17:48;;;;;;;3.75;3.45;;;;;;;37.30;26.08;99416.97;5110469;28;20285;-66
2022/08/04 09:20:22;;;;;;;6.65;3.67;;;;;;;37.57;26.38;99420.31;5110701;28;20198;-66
2022/08/04 09:22:59;;;;;;;3.92;3.60;;;;;;;37.50;27.05;99411.41;5097925;28;20199;-66
2022/08/04 09:25:30;;;;;;;8.30;3.63;;;;;;;37.79;26.26;99408.88;5102184;28;20202;-67
2022/08/04 09:28:04;;;;;;;3.20;3.10;;;;;;;37.56;25.34;99405.09;5100905;28;20199;-67
2022/08/04 09:30:38;;;;;;;3.97;3.53;;;;;;;37.60;25.57;99417.97;5098090;28;20605;-67
2022/08/04 09:33:15;;;;;;;4.57;3.47;;;;;;;37.77;26.67;99407.44;5098627;28;20222;-67
2022/08/04 09:35:48;;;;;;;3.47;3.28;;;;;;;38.35;25.81;99412.50;5098220;28;20198;-66
2022/08/04 09:38:25;;;;;;;6.05;3.80;;;;;;;37.88;26.29;99404.00;5101932;28;20191;-67
2022/08/04 09:40:58;;;;;;;5.25;3.60;;;;;;;37.35;26.67;99404.44;5100034;28;20253;-67
2022/08/04 09:43:37;;;;;;;3.95;3.63;;;;;;;37.07;26.29;99410.22;5098372;28;20187;-66
2022/08/04 09:46:09;;;;;;;3.70;3.50;;;;;;;37.16;26.10;99401.88;5097925;28;20202;-67
2022/08/04 09:48:44;;;;;;;4.03;3.53;;;;;;;37.60;26.36;99400.88;5096785;28;20194;-66
2022/08/04 09:51:22;;;;;;;3.60;3.50;;;;;;;38.02;25.09;99404.72;5094454;28;20230;-67
2022/08/04 09:53:57;;;;;;;4.10;3.70;;;;;;;38.10;25.00;99397.13;5105678;28;20196;-67
2022/08/04 09:56:32;;;;;;;5.97;3.35;;;;;;;38.04;25.45;99399.88;5089838;28;20568;-67
2022/08/04 09:59:11;;;;;;;3.65;3.15;;;;;;;37.79;25.14;99394.50;5090962;28;20191;-67
2022/08/04 10:01:39;;;;;;;4.05;3.85;;;;;;;37.88;25.30;99403.19;5095694;28;20631;-60
2022/08/04 10:04:12;;;;;;;3.58;3.38;;;;;;;38.03;24.92;99399.06;5090475;28;20194;-59
2022/08/04 10:07:03;;;;;;;4.25;3.83;;;;;;;38.18;24.71;99389.75;5097143;28;20317;-59
2022/08/04 10:09:53;;;;;;;7.72;3.58;;;;;;;38.32;24.36;99393.97;5100561;28;20264;-60
2022/08/04 10:12:31;;;;;;;5.80;3.28;;;;;;;37.72;24.75;99383.72;5099154;28;20677;-59
2022/08/04 10:15:09;;;;;;;3.55;3.33;;;;;;;37.15;25.02;99381.22;5099174;28;20186;-60
2022/08/04 10:17:51;;;;;;;4.25;3.83;;;;;;;37.07;25.59;99374.22;5099211;28;20198;-60
2022/08/04 10:20:30;;;;;;;3.53;3.33;;;;;;;36.87;25.59;99378.91;5099292;28;20616;-58
2022/08/04 10:23:11;;;;;;;3.72;3.42;;;;;;;36.92;25.24;99374.50;5099112;28;20190;-68
2022/08/04 10:25:49;;;;;;;3.30;3.20;;;;;;;36.82;25.57;99376.03;5099205;28;20194;-65
2022/08/04 10:28:21;;;;;;;5.47;3.60;;;;;;;36.63;25.88;99369.66;5099112;28;20206;-65
2022/08/04 10:30:54;;;;;;;4.00;3.60;;;;;;;36.25;26.28;99370.44;5098359;28;20230;-65
2022/08/04 10:33:25;;;;;;;3.78;3.28;;;;;;;36.02;26.97;99372.75;5097180;28;20215;-66
2022/08/04 10:36:00;;;;;;;3.58;3.47;;;;;;;35.71;26.94;99365.31;5097629;28;20569;-65
2022/08/04 10:38:31;;;;;;;3.72;3.47;;;;;;;35.52;27.56;99358.91;5098224;28;20194;-67
2022/08/04 10:41:06;;;;;;;5.40;3.42;;;;;;;35.35;27.66;99354.94;5096827;28;20255;-68
2022/08/04 10:43:44;;;;;;;5.90;4.68;;;;;;;35.19;27.68;99347.25;5100297;28;20197;-68
2022/08/04 10:46:16;;;;;;;5.78;4.03;;;;;;;34.83;27.86;99347.59;5100534;28;20569;-59
2022/08/04 10:48:51;;;;;;;4.03;3.65;;;;;;;34.72;28.31;99345.47;5101228;28;20227;-60
2022/08/04 10:51:27;;;;;;;4.30;3.33;;;;;;;34.62;27.97;99327.00;5100815;28;20198;-60
2022/08/04 10:54:00;;;;;;;3.83;3.63;;;;;;;34.61;28.75;99333.41;5100630;28;20203;-60
2022/08/04 10:56:40;;;;;;;11.18;4.32;;;;;;;34.72;28.23;99335.53;5101757;28;20194;-58
2022/08/04 10:59:13;;;;;;;3.80;3.55;;;;;;;34.62;28.00;99337.78;5101884;28;20230;-59
2022/08/04 11:01:42;;;;;;;4.50;4.10;;;;;;;34.56;28.57;99328.63;5101053;28;20322;-66
2022/08/04 11:04:21;;;;;;;6.28;4.10;;;;;;;34.60;27.92;99324.50;5104088;28;20203;-65
2022/08/04 11:06:49;;;;;;;9.55;4.70;;;;;;;34.79;28.08;99330.16;5099886;28;20194;-65
2022/08/04 11:09:18;;;;;;;11.02;4.50;;;;;;;34.81;27.98;99330.78;5102648;28;20205;-65
2022/08/04 11:11:53;;;;;;;6.05;3.65;;;;;;;34.72;28.52;99327.44;5099702;28;20186;-59
2022/08/04 11:14:24;;;;;;;6.68;3.65;;;;;;;34.76;27.91;99328.72;5100492;28;20260;-59
2022/08/04 11:16:57;;;;;;;7.60;3.58;;;;;;;34.76;27.81;99327.91;5100660;28;20218;-59
2022/08/04 11:19:34;;;;;;;3.80;3.35;;;;;;;34.53;27.61;99312.88;5100693;28;20283;-59
2022/08/04 11:22:07;;;;;;;4.57;3.55;;;;;;;34.37;27.80;99304.31;5100541;28;20678;-59
2022/08/04 11:24:42;;;;;;;5.03;4.00;;;;;;;34.60;27.29;99319.09;5100575;28;20281;-60
2022/08/04 11:27:16;;;;;;;4.10;3.80;;;;;;;34.64;27.36;99307.94;5101403;28;20309;-58
2022/08/04 11:29:56;;;;;;;3.85;3.55;;;;;;;34.66;27.28;99313.91;5100666;28;20240;-65
2022/08/04 11:32:32;;;;;;;4.18;3.60;;;;;;;34.53;27.42;99309.34;5100825;28;20577;-66
2022/08/04 11:35:05;;;;;;;3.88;3.58;;;;;;;34.28;27.15;99298.28;5099951;28;20198;-65
2022/08/04 11:37:46;;;;;;;5.07;3.85;;;;;;;34.37;27.16;99288.13;5100085;28;20275;-60
2022/08/04 11:40:20;;;;;;;4.22;3.92;;;;;;;34.43;27.62;99292.72;5101465;28;20195;-60
2022/08/04 11:42:55;;;;;;;5.00;3.63;;;;;;;34.48;26.90;99277.59;5100658;28;20222;-59
2022/08/04 11:45:30;;;;;;;3.72;3.38;;;;;;;34.49;27.56;99279.28;5100060;28;20191;-58
2022/08/04 11:48:01;;;;;;;3.50;3.30;;;;;;;34.41;27.42;99290.25;5099851;28;20628;-60
2022/08/04 11:50:37;;;;;;;3.90;3.25;;;;;;;34.41;26.55;99290.25;5100359;28;20203;-59
2022/08/04 11:53:05;;;;;;;3.58;3.40;;;;;;;34.29;27.20;99280.25;5100375;28;20229;-59
2022/08/04 11:55:34;;;;;;;3.20;3.10;;;;;;;34.19;26.92;99284.13;5099331;28;25162;-58
2022/08/04 11:58:03;;;;;;;4.03;3.20;;;;;;;33.96;27.88;99280.91;5099891;28;20191;-59
2022/08/04 12:00:32;;;;;;;3.45;3.15;;;;;;;33.96;28.08;99274.69;5100125;28;20281;-59
2022/08/04 12:03:13;;;;;;;3.50;3.20;;;;;;;33.89;27.76;99274.66;5101051;28;20642;-59
2022/08/04 12:05:51;;;;;;;4.00;3.78;;;;;;;33.76;27.94;99270.03;5101412;28;20194;-68
2022/08/04 12:08:33;;;;;;;3.80;3.40;;;;;;;33.79;28.78;99266.13;5101332;28;20201;-66
2022/08/04 12:11:13;;;;;;;3.72;3.42;;;;;;;33.71;27.83;99259.00;5104316;28;20744;-66
2022/08/04 12:13:49;;;;;;;3.42;3.20;;;;;;;33.86;27.91;99257.03;5099042;28;20254;-59
2022/08/04 12:16:20;;;;;;;3.58;3.42;;;;;;;33.89;27.88;99256.63;5101698;28;20229;-60